Lake George, Wisconsin
Current Conditions -  °F | °C
As of 12:53 PM on Monday 20 Oct 2014 (Local Time) from KRHI Reporting Station
Broken Clouds Broken Clouds  
Wind Chill: 45°   Ceiling: 2300
Heat Index: 48°   Visibility: 10mi
Dew Point: 40°   Wind: 7mph
Humidity: 74%   Direction: 330°NNW
Pressure: 29.91"   Gusts: 16mph
Location:  45.6521°N, 89.3386°W
Report Text: KRHI 201753Z AUTO 33006G14KT 10SM BKN023 BKN035 BKN046 09/04 A2991 RMK AO2 SLP138 60001 T00890044 10094 20067 51002
Loading
Personal Weather Stations






























Interactive Weather Map
Tropical Storm Tracking
New forecast layout! Learn more

10-Day Weather Forecast

Advertisements
Track Severe Weather on mobile